CheckWX is a tool to help pilots better visualize weather data.  It is not intended as a substitute for an official pre-flight weather briefing.

02:06:52 UTC

KTIW METAR
Tacoma Narrows Airport
Tacoma, Washington, USA
Current

14 mins ago

KTIW 180153Z 00000KT 10SM SCT020 SCT041 03/01 A3026 RMK AO2 SLP251 T00280011
Observed
Feb-18 @ 01:53 UTC
Visibility
10 SM
Flight Rules
VFR
Cloud Levels
  • Scattered at 2,000' AGL
  • Scattered at 4,100' AGL
Temperature
C / 37°F
Dewpoint
C / 34°F
Humidity
87%
Altimeter
30.26" Hg
Pressure
1025.1 hPa
Previous

1 hour ago

KTIW 180053Z 23004KT 10SM FEW023 SCT027 BKN035 04/01 A3024 RMK AO2 SLP245 T00440011
Observed
Feb-18 @ 00:53 UTC
Wind
  • 230° at 4 KTS
Visibility
10 SM
Flight Rules
VFR
Cloud Levels
  • Few at 2,300' AGL
  • Scattered at 2,700' AGL
  • Broken at 3,500' AGL
Temperature
C / 39°F
Dewpoint
C / 34°F
Humidity
81%
Altimeter
30.24" Hg
Pressure
1024.5 hPa
Previous

2 hours ago

KTIW 180000Z 23004KT 10SM BKN016 BKN026 OVC033 04/02 A3023 RMK AO2 T00390017
Observed
Feb-18 @ 00:00 UTC
Wind
  • 230° at 4 KTS
Visibility
10 SM
Flight Rules
MVFR
Cloud Levels
  • Broken at 1,600' AGL
  • Broken at 2,600' AGL
  • Overcast at 3,300' AGL
Temperature
C / 39°F
Dewpoint
C / 36°F
Humidity
87%
Altimeter
30.23" Hg
Pressure
1023.72 hPa